Time,TemperatureF,DewpointF,PressureIn,WindDirection,WindDirectionDegrees,WindSpeedMPH,WindSpeedGustMPH,Humidity,HourlyPrecipIn,Conditions,Clouds,dailyrainin,SoftwareType,DateUTC
2013-01-03 00:00:00,13.8,4.2,30.09,NW,324,15.0,27.0,65,0.00,,---,0.00,VWS V14.01,2013-01-03 05:00:00,
2013-01-03 00:01:00,13.9,5.0,30.09,NNW,331,18.0,21.0,67,0.00,,---,0.00,VWS V14.01,2013-01-03 05:01:00,
2013-01-03 00:03:00,13.8,4.6,30.09,NNW,342,16.0,22.0,66,0.00,,---,0.00,VWS V14.01,2013-01-03 05:03:00,
2013-01-03 00:08:00,13.6,4.7,30.09,NNW,329,26.0,26.0,67,0.00,,---,0.00,VWS V14.01,2013-01-03 05:08:00,
2013-01-03 00:13:00,13.4,4.2,30.09,NW,321,17.0,26.0,66,0.00,,---,0.00,VWS V14.01,2013-01-03 05:13:00,
2013-01-03 00:18:00,13.3,4.4,30.09,NW,319,22.0,26.0,67,0.00,,---,0.00,VWS V14.01,2013-01-03 05:18:00,
2013-01-03 00:24:00,13.3,4.4,30.10,NNW,331,19.0,27.0,67,0.00,,---,0.00,VWS V14.01,2013-01-03 05:24:00,
2013-01-03 00:29:00,13.0,3.1,30.11,NW,315,16.0,28.0,64,0.00,,---,0.00,VWS V14.01,2013-01-03 05:29:00,
2013-01-03 00:34:00,12.8,2.6,30.10,NW,322,20.0,22.0,63,0.00,,---,0.00,VWS V14.01,2013-01-03 05:34:00,
2013-01-03 00:39:00,12.9,3.4,30.10,WNW,301,18.0,24.0,65,0.00,,---,0.00,VWS V14.01,2013-01-03 05:39:00,
2013-01-03 00:44:00,12.7,2.8,30.10,NW,309,22.0,24.0,64,0.00,,---,0.00,VWS V14.01,2013-01-03 05:44:00,
2013-01-03 00:49:00,12.6,3.1,30.10,NW,320,18.0,24.0,65,0.00,,---,0.00,VWS V14.01,2013-01-03 05:49:00,
2013-01-03 00:54:00,12.3,1.8,30.10,NW,324,14.0,24.0,62,0.00,,---,0.00,VWS V14.01,2013-01-03 05:54:00,
2013-01-03 00:59:00,12.8,3.9,30.11,NNW,327,18.0,24.0,67,0.00,,---,0.00,VWS V14.01,2013-01-03 05:59:00,
2013-01-03 01:04:00,12.5,2.7,30.11,WNW,301,19.0,24.0,64,0.00,,---,0.00,VWS V14.01,2013-01-03 06:04:00,
2013-01-03 01:09:00,12.3,2.8,30.11,NW,325,21.0,24.0,65,0.00,,---,0.00,VWS V14.01,2013-01-03 06:09:00,
2013-01-03 01:14:00,12.4,3.2,30.12,NW,315,17.0,24.0,66,0.00,,---,0.00,VWS V14.01,2013-01-03 06:14:00,
2013-01-03 01:19:00,12.1,2.3,30.12,NW,305,19.0,24.0,64,0.00,,---,0.00,VWS V14.01,2013-01-03 06:19:00,
2013-01-03 01:24:00,11.8,1.6,30.12,WNW,303,14.0,24.0,63,0.00,,---,0.00,VWS V14.01,2013-01-03 06:24:00,
2013-01-03 01:30:00,12.2,3.3,30.12,NW,317,15.0,24.0,67,0.00,,---,0.00,VWS V14.01,2013-01-03 06:30:00,
2013-01-03 01:35:00,11.6,1.5,30.12,NW,317,20.0,25.0,63,0.00,,---,0.00,VWS V14.01,2013-01-03 06:35:00,
2013-01-03 01:40:00,11.4,1.9,30.13,NNW,329,16.0,25.0,65,0.00,,---,0.00,VWS V14.01,2013-01-03 06:40:00,
2013-01-03 01:45:00,11.4,1.3,30.12,NW,308,18.0,25.0,63,0.00,,---,0.00,VWS V14.01,2013-01-03 06:45:00,
2013-01-03 01:50:00,11.7,3.2,30.13,NW,304,18.0,25.0,68,0.00,,---,0.00,VWS V14.01,2013-01-03 06:50:00,
2013-01-03 01:55:00,11.7,2.5,30.12,NW,312,16.0,25.0,66,0.00,,---,0.00,VWS V14.01,2013-01-03 06:55:00,
2013-01-03 02:00:00,11.7,2.9,30.12,NW,324,23.0,25.0,67,0.00,,---,0.00,VWS V14.01,2013-01-03 07:00:00,
2013-01-03 02:05:00,11.3,1.2,30.13,NW,319,19.0,23.0,63,0.00,,---,0.00,VWS V14.01,2013-01-03 07:05:00,
2013-01-03 02:10:00,11.7,3.5,30.13,NW,320,14.0,23.0,69,0.00,,---,0.00,VWS V14.01,2013-01-03 07:10:00,
2013-01-03 02:15:00,11.2,1.7,30.12,NW,310,15.0,23.0,65,0.00,,---,0.00,VWS V14.01,2013-01-03 07:15:00,
2013-01-03 02:20:00,11.3,1.8,30.13,NW,311,17.0,23.0,65,0.00,,---,0.00,VWS V14.01,2013-01-03 07:20:00,
2013-01-03 02:25:00,11.1,1.0,30.13,NW,322,14.0,23.0,63,0.00,,---,0.00,VWS V14.01,2013-01-03 07:25:00,
2013-01-03 02:30:00,11.3,1.8,30.13,WNW,300,17.0,23.0,65,0.00,,---,0.00,VWS V14.01,2013-01-03 07:30:00,
2013-01-03 02:35:00,11.4,1.9,30.12,NW,323,14.0,21.0,65,0.00,,---,0.00,VWS V14.01,2013-01-03 07:35:00,
2013-01-03 02:40:00,11.5,2.7,30.12,NW,321,18.0,21.0,67,0.00,,---,0.00,VWS V14.01,2013-01-03 07:40:00,
2013-01-03 02:45:00,11.3,2.2,30.12,WNW,294,17.0,21.0,66,0.00,,---,0.00,VWS V14.01,2013-01-03 07:45:00,
2013-01-03 02:50:00,11.3,2.5,30.12,NW,313,14.0,24.0,67,0.00,,---,0.00,VWS V14.01,2013-01-03 07:50:00,
2013-01-03 02:55:00,11.2,2.1,30.12,NW,311,15.0,24.0,66,0.00,,---,0.00,VWS V14.01,2013-01-03 07:55:00,
2013-01-03 03:00:00,11.0,0.9,30.12,NW,317,16.0,16.0,63,0.00,,---,0.00,VWS V14.01,2013-01-03 08:00:00,
2013-01-03 03:05:00,11.3,2.5,30.12,WNW,294,13.0,20.0,67,0.00,,---,0.00,VWS V14.01,2013-01-03 08:05:00,
2013-01-03 03:10:00,10.8,1.0,30.12,NW,306,18.0,20.0,64,0.00,,---,0.00,VWS V14.01,2013-01-03 08:10:00,
2013-01-03 03:16:00,11.1,2.0,30.13,NW,314,15.0,20.0,66,0.00,,---,0.00,VWS V14.01,2013-01-03 08:16:00,
2013-01-03 03:21:00,10.9,0.8,30.12,NW,313,14.0,21.0,63,0.00,,---,0.00,VWS V14.01,2013-01-03 08:21:00,
2013-01-03 03:26:00,10.7,1.3,30.12,NNW,329,17.0,21.0,65,0.00,,---,0.00,VWS V14.01,2013-01-03 08:26:00,
2013-01-03 03:31:00,11.0,2.8,30.11,NW,323,15.0,22.0,69,0.00,,---,0.00,VWS V14.01,2013-01-03 08:31:00,
2013-01-03 03:36:00,10.7,1.6,30.12,NW,317,16.0,22.0,66,0.00,,---,0.00,VWS V14.01,2013-01-03 08:36:00,
2013-01-03 03:41:00,10.3,0.6,30.12,NW,317,12.0,22.0,64,0.00,,---,0.00,VWS V14.01,2013-01-03 08:41:00,
2013-01-03 03:46:00,10.6,2.1,30.12,NW,308,14.0,22.0,68,0.00,,---,0.00,VWS V14.01,2013-01-03 08:46:00,
2013-01-03 03:51:00,10.3,0.9,30.12,NW,321,13.0,22.0,65,0.00,,---,0.00,VWS V14.01,2013-01-03 08:51:00,
2013-01-03 03:56:00,10.0,-0.1,30.12,NW,320,15.0,22.0,63,0.00,,---,0.00,VWS V14.01,2013-01-03 08:56:00,
2013-01-03 04:01:00,10.1,0.7,30.12,NW,316,12.0,18.0,65,0.00,,---,0.00,VWS V14.01,2013-01-03 09:01:00,
2013-01-03 04:06:00,10.3,1.2,30.12,NNW,331,15.0,18.0,66,0.00,,---,0.00,VWS V14.01,2013-01-03 09:06:00,
2013-01-03 04:11:00,10.0,0.6,30.12,WNW,302,17.0,18.0,65,0.00,,---,0.00,VWS V14.01,2013-01-03 09:11:00,
2013-01-03 04:16:00,9.9,0.5,30.12,NW,313,13.0,19.0,65,0.00,,---,0.00,VWS V14.01,2013-01-03 09:16:00,
2013-01-03 04:21:00,9.9,0.8,30.11,WNW,298,13.0,20.0,66,0.00,,---,0.00,VWS V14.01,2013-01-03 09:21:00,
2013-01-03 04:27:00,9.8,0.4,30.11,NW,317,10.0,20.0,65,0.00,,---,0.00,VWS V14.01,2013-01-03 09:27:00,
2013-01-03 04:32:00,9.9,1.1,30.11,NW,325,14.0,17.0,67,0.00,,---,0.00,VWS V14.01,2013-01-03 09:32:00,
2013-01-03 04:37:00,9.8,0.4,30.11,NNW,337,18.0,18.0,65,0.00,,---,0.00,VWS V14.01,2013-01-03 09:37:00,
2013-01-03 04:42:00,9.4,-0.6,30.12,NW,325,15.0,21.0,63,0.00,,---,0.00,VWS V14.01,2013-01-03 09:42:00,
2013-01-03 04:47:00,9.5,-0.2,30.12,NW,317,10.0,21.0,64,0.00,,---,0.00,VWS V14.01,2013-01-03 09:47:00,
2013-01-03 04:52:00,9.6,0.2,30.11,NW,316,10.0,21.0,65,0.00,,---,0.00,VWS V14.01,2013-01-03 09:52:00,
2013-01-03 04:57:00,9.7,0.6,30.11,NW,319,14.0,21.0,66,0.00,,---,0.00,VWS V14.01,2013-01-03 09:57:00,
2013-01-03 05:02:00,9.8,1.4,30.11,NW,325,16.0,16.0,68,0.00,,---,0.00,VWS V14.01,2013-01-03 10:02:00,
2013-01-03 05:07:00,9.5,0.4,30.11,NNW,344,14.0,18.0,66,0.00,,---,0.00,VWS V14.01,2013-01-03 10:07:00,
2013-01-03 05:12:00,9.4,0.0,30.11,NW,320,13.0,18.0,65,0.00,,---,0.00,VWS V14.01,2013-01-03 10:12:00,
2013-01-03 05:17:00,9.5,0.4,30.11,NW,310,13.0,18.0,66,0.00,,---,0.00,VWS V14.01,2013-01-03 10:17:00,
2013-01-03 05:23:00,9.4,0.7,30.11,NW,320,12.0,18.0,67,0.00,,---,0.00,VWS V14.01,2013-01-03 10:23:00,
2013-01-03 05:28:00,9.6,1.2,30.11,NW,310,11.0,18.0,68,0.00,,---,0.00,VWS V14.01,2013-01-03 10:28:00,
2013-01-03 05:33:00,9.7,1.3,30.11,NW,322,10.0,14.0,68,0.00,,---,0.00,VWS V14.01,2013-01-03 10:33:00,
2013-01-03 05:38:00,9.2,-0.2,30.11,WNW,302,11.0,17.0,65,0.00,,---,0.00,VWS V14.01,2013-01-03 10:38:00,
2013-01-03 05:43:00,9.4,0.7,30.11,NW,322,14.0,17.0,67,0.00,,---,0.00,VWS V14.01,2013-01-03 10:43:00,
2013-01-03 05:48:00,9.2,0.2,30.11,WNW,302,11.0,17.0,66,0.00,,---,0.00,VWS V14.01,2013-01-03 10:48:00,
2013-01-03 05:53:00,9.1,-0.3,30.11,NW,323,16.0,17.0,65,0.00,,---,0.00,VWS V14.01,2013-01-03 10:53:00,
2013-01-03 05:58:00,9.4,1.0,30.11,NW,304,14.0,17.0,68,0.00,,---,0.00,VWS V14.01,2013-01-03 10:58:00,
2013-01-03 06:03:00,9.5,1.4,30.11,NNW,330,14.0,14.0,69,0.00,,---,0.00,VWS V14.01,2013-01-03 11:03:00,
2013-01-03 06:08:00,9.3,0.3,30.11,NW,309,13.0,17.0,66,0.00,,---,0.00,VWS V14.01,2013-01-03 11:08:00,
2013-01-03 06:13:00,9.2,0.5,30.11,NW,317,14.0,18.0,67,0.00,,---,0.00,VWS V14.01,2013-01-03 11:13:00,
2013-01-03 06:18:00,9.0,-0.4,30.11,NW,326,13.0,18.0,65,0.00,,---,0.00,VWS V14.01,2013-01-03 11:18:00,
2013-01-03 06:23:00,9.2,0.2,30.11,NW,325,10.0,18.0,66,0.00,,---,0.00,VWS V14.01,2013-01-03 11:23:00,
2013-01-03 06:28:00,9.4,1.0,30.11,NW,323,11.0,18.0,68,0.00,,---,0.00,VWS V14.01,2013-01-03 11:28:00,
2013-01-03 06:34:00,9.4,0.3,30.11,NW,326,10.0,15.0,66,0.00,,---,0.00,VWS V14.01,2013-01-03 11:34:00,
2013-01-03 06:39:00,9.7,1.0,30.11,NW,317,15.0,18.0,67,0.00,,---,0.00,VWS V14.01,2013-01-03 11:39:00,
2013-01-03 06:44:00,9.8,1.7,30.11,NNW,331,13.0,18.0,69,0.00,,---,0.00,VWS V14.01,2013-01-03 11:44:00,
2013-01-03 06:49:00,9.4,0.3,30.12,NW,306,11.0,18.0,66,0.00,,---,0.00,VWS V14.01,2013-01-03 11:49:00,
2013-01-03 06:54:00,9.4,1.0,30.12,NW,310,9.0,18.0,68,0.00,,---,0.00,VWS V14.01,2013-01-03 11:54:00,
2013-01-03 06:59:00,9.1,0.1,30.12,NW,321,12.0,18.0,66,0.00,,---,0.00,VWS V14.01,2013-01-03 11:59:00,
2013-01-03 07:04:00,9.4,1.3,30.12,WNW,298,10.0,14.0,69,0.00,,---,0.00,VWS V14.01,2013-01-03 12:04:00,
2013-01-03 07:09:00,9.0,-0.4,30.12,NW,313,11.0,14.0,65,0.00,,---,0.00,VWS V14.01,2013-01-03 12:09:00,
2013-01-03 07:14:00,9.2,1.1,30.12,NW,304,9.0,14.0,69,0.00,,---,0.00,VWS V14.01,2013-01-03 12:14:00,
2013-01-03 07:19:00,9.4,1.3,30.12,NW,317,9.0,14.0,69,0.00,,---,0.00,VWS V14.01,2013-01-03 12:19:00,
2013-01-03 07:24:00,9.2,0.5,30.12,WNW,300,12.0,14.0,67,0.00,,---,0.00,VWS V14.01,2013-01-03 12:24:00,
2013-01-03 07:30:00,9.2,0.5,30.12,NW,308,14.0,15.0,67,0.00,,---,0.00,VWS V14.01,2013-01-03 12:30:00,
2013-01-03 07:35:00,9.4,1.0,30.13,NW,307,14.0,14.0,68,0.00,,---,0.00,VWS V14.01,2013-01-03 12:35:00,
2013-01-03 07:40:00,9.4,1.0,30.13,NW,315,12.0,16.0,68,0.00,,---,0.00,VWS V14.01,2013-01-03 12:40:00,
2013-01-03 07:45:00,9.3,0.3,30.13,WNW,292,10.0,16.0,66,0.00,,---,0.00,VWS V14.01,2013-01-03 12:45:00,
2013-01-03 07:50:00,9.2,-0.2,30.13,NW,307,9.0,16.0,65,0.00,,---,0.00,VWS V14.01,2013-01-03 12:50:00,
2013-01-03 07:55:00,9.4,0.7,30.13,NW,307,11.0,16.0,67,0.00,,---,0.00,VWS V14.01,2013-01-03 12:55:00,
2013-01-03 08:00:00,9.7,1.3,30.13,WNW,286,11.0,16.0,68,0.00,,---,0.00,VWS V14.01,2013-01-03 13:00:00,
2013-01-03 08:05:00,9.9,1.8,30.13,WNW,292,13.0,14.0,69,0.00,,---,0.00,VWS V14.01,2013-01-03 13:05:00,
2013-01-03 08:10:00,9.8,1.4,30.13,NW,313,8.0,15.0,68,0.00,,---,0.00,VWS V14.01,2013-01-03 13:10:00,
2013-01-03 08:15:00,9.6,0.5,30.13,NW,311,10.0,16.0,66,0.00,,---,0.00,VWS V14.01,2013-01-03 13:15:00,
2013-01-03 08:20:00,9.5,-0.2,30.13,NW,311,10.0,16.0,64,0.00,,---,0.00,VWS V14.01,2013-01-03 13:20:00,
2013-01-03 08:26:00,9.8,1.0,30.13,WNW,302,11.0,16.0,67,0.00,,---,0.00,VWS V14.01,2013-01-03 13:26:00,
2013-01-03 08:31:00,9.8,0.4,30.13,NW,324,11.0,11.0,65,0.00,,---,0.00,VWS V14.01,2013-01-03 13:31:00,
2013-01-03 08:36:00,10.3,1.2,30.13,NW,323,10.0,15.0,66,0.00,,---,0.00,VWS V14.01,2013-01-03 13:36:00,
2013-01-03 08:41:00,10.3,0.9,30.13,WNW,298,9.0,15.0,65,0.00,,---,0.00,VWS V14.01,2013-01-03 13:41:00,
2013-01-03 08:46:00,10.2,-0.2,30.13,WNW,298,9.0,15.0,62,0.00,,---,0.00,VWS V14.01,2013-01-03 13:46:00,
2013-01-03 08:51:00,10.5,0.8,30.13,NW,315,13.0,15.0,64,0.00,,---,0.00,VWS V14.01,2013-01-03 13:51:00,
2013-01-03 08:56:00,10.6,0.5,30.12,NW,320,9.0,15.0,63,0.00,,---,0.00,VWS V14.01,2013-01-03 13:56:00,
2013-01-03 09:01:00,10.9,1.5,30.12,WNW,299,9.0,12.0,65,0.00,,---,0.00,VWS V14.01,2013-01-03 14:01:00,
2013-01-03 09:06:00,11.1,1.6,30.12,WNW,294,10.0,12.0,65,0.00,,---,0.00,VWS V14.01,2013-01-03 14:06:00,
2013-01-03 09:12:00,11.2,0.4,30.12,WNW,294,11.0,13.0,61,0.00,,---,0.00,VWS V14.01,2013-01-03 14:12:00,
2013-01-03 09:17:00,11.5,1.4,30.12,NW,321,7.0,13.0,63,0.00,,---,0.00,VWS V14.01,2013-01-03 14:17:00,
2013-01-03 09:22:00,11.7,1.2,30.12,WNW,294,8.0,13.0,62,0.00,,---,0.00,VWS V14.01,2013-01-03 14:22:00,
2013-01-03 09:27:00,11.9,1.4,30.12,WNW,285,11.0,13.0,62,0.00,,---,0.00,VWS V14.01,2013-01-03 14:27:00,
2013-01-03 09:32:00,12.3,2.1,30.13,WNW,287,11.0,12.0,63,0.00,,---,0.00,VWS V14.01,2013-01-03 14:32:00,
2013-01-03 09:37:00,12.6,2.4,30.13,WNW,292,10.0,12.0,63,0.00,,---,0.00,VWS V14.01,2013-01-03 14:37:00,
2013-01-03 09:42:00,12.6,1.7,30.13,NW,311,10.0,12.0,61,0.00,,---,0.00,VWS V14.01,2013-01-03 14:42:00,
2013-01-03 09:47:00,12.7,2.2,30.13,WNW,300,11.0,13.0,62,0.00,,---,0.00,VWS V14.01,2013-01-03 14:47:00,
2013-01-03 09:52:00,13.2,3.3,30.13,NW,319,8.0,13.0,64,0.00,,---,0.00,VWS V14.01,2013-01-03 14:52:00,
2013-01-03 09:57:00,13.3,3.4,30.13,WNW,288,8.0,15.0,64,0.00,,---,0.00,VWS V14.01,2013-01-03 14:57:00,
2013-01-03 10:02:00,13.1,1.5,30.12,NW,306,9.0,13.0,59,0.00,,---,0.00,VWS V14.01,2013-01-03 15:02:00,
2013-01-03 10:07:00,13.4,2.1,30.12,WNW,302,8.0,14.0,60,0.00,,---,0.00,VWS V14.01,2013-01-03 15:07:00,
2013-01-03 10:12:00,13.7,2.8,30.12,NNW,327,9.0,15.0,61,0.00,,---,0.00,VWS V14.01,2013-01-03 15:12:00,
2013-01-03 10:17:00,13.8,2.1,30.12,NW,309,7.0,15.0,59,0.00,,---,0.00,VWS V14.01,2013-01-03 15:17:00,
2013-01-03 10:23:00,13.7,1.7,30.11,NW,313,6.0,15.0,58,0.00,,---,0.00,VWS V14.01,2013-01-03 15:23:00,
2013-01-03 10:28:00,13.9,2.2,30.11,NW,317,8.0,15.0,59,0.00,,---,0.00,VWS V14.01,2013-01-03 15:28:00,
2013-01-03 10:33:00,14.1,2.8,30.11,NW,323,9.0,12.0,60,0.00,,---,0.00,VWS V14.01,2013-01-03 15:33:00,
2013-01-03 10:38:00,14.3,2.2,30.11,NW,322,8.0,12.0,58,0.00,,---,0.00,VWS V14.01,2013-01-03 15:38:00,
2013-01-03 10:43:00,15.1,3.7,30.11,West,279,13.0,13.0,60,0.00,,---,0.00,VWS V14.01,2013-01-03 15:43:00,
2013-01-03 10:48:00,15.3,2.8,30.10,WNW,294,8.0,13.0,57,0.00,,---,0.00,VWS V14.01,2013-01-03 15:48:00,
2013-01-03 10:53:00,15.7,3.9,30.10,WNW,299,9.0,13.0,59,0.00,,---,0.00,VWS V14.01,2013-01-03 15:53:00,
2013-01-03 10:58:00,15.7,2.4,30.10,NW,307,6.0,13.0,55,0.00,,---,0.00,VWS V14.01,2013-01-03 15:58:00,
2013-01-03 11:03:00,16.2,4.4,30.10,NW,305,7.0,12.0,59,0.00,,---,0.00,VWS V14.01,2013-01-03 16:03:00,
2013-01-03 11:08:00,16.4,3.5,30.10,NW,311,9.0,12.0,56,0.00,,---,0.00,VWS V14.01,2013-01-03 16:08:00,
2013-01-03 11:13:00,16.8,5.0,30.10,NW,310,11.0,13.0,59,0.00,,---,0.00,VWS V14.01,2013-01-03 16:13:00,
2013-01-03 11:19:00,17.0,4.0,30.09,NW,315,11.0,14.0,56,0.00,,---,0.00,VWS V14.01,2013-01-03 16:19:00,
2013-01-03 11:24:00,17.5,5.3,30.09,NW,317,8.0,14.0,58,0.00,,---,0.00,VWS V14.01,2013-01-03 16:24:00,
2013-01-03 11:29:00,17.3,3.1,30.09,NW,317,11.0,14.0,53,0.00,,---,0.00,VWS V14.01,2013-01-03 16:29:00,
2013-01-03 11:34:00,17.7,4.3,30.09,NW,314,12.0,17.0,55,0.00,,---,0.00,VWS V14.01,2013-01-03 16:34:00,
2013-01-03 11:39:00,18.0,4.6,30.09,NW,323,9.0,17.0,55,0.00,,---,0.00,VWS V14.01,2013-01-03 16:39:00,
2013-01-03 11:44:00,18.4,5.3,30.09,NW,309,8.0,17.0,56,0.00,,---,0.00,VWS V14.01,2013-01-03 16:44:00,
2013-01-03 11:49:00,18.8,5.7,30.09,WNW,302,13.0,17.0,56,0.00,,---,0.00,VWS V14.01,2013-01-03 16:49:00,
2013-01-03 11:54:00,18.8,4.9,30.09,WNW,294,13.0,17.0,54,0.00,,---,0.00,VWS V14.01,2013-01-03 16:54:00,
2013-01-03 11:59:00,19.2,6.5,30.08,WNW,290,11.0,18.0,57,0.00,,---,0.00,VWS V14.01,2013-01-03 16:59:00,
2013-01-03 12:04:00,19.4,6.7,30.08,NW,304,14.0,17.0,57,0.00,,---,0.00,VWS V14.01,2013-01-03 17:04:00,
2013-01-03 12:09:00,19.2,4.5,30.08,NW,308,11.0,17.0,52,0.00,,---,0.00,VWS V14.01,2013-01-03 17:09:00,
2013-01-03 12:14:00,19.7,6.2,30.07,NW,323,11.0,17.0,55,0.00,,---,0.00,VWS V14.01,2013-01-03 17:14:00,
2013-01-03 12:20:00,19.7,4.5,30.07,NW,312,9.0,17.0,51,0.00,,---,0.00,VWS V14.01,2013-01-03 17:20:00,
2013-01-03 12:25:00,19.8,5.0,30.07,NW,310,11.0,17.0,52,0.00,,---,0.00,VWS V14.01,2013-01-03 17:25:00,
2013-01-03 12:30:00,20.2,6.6,30.07,NW,320,9.0,17.0,55,0.00,,---,0.00,VWS V14.01,2013-01-03 17:30:00,
2013-01-03 12:35:00,20.4,5.2,30.06,NW,310,15.0,16.0,51,0.00,,---,0.00,VWS V14.01,2013-01-03 17:35:00,
2013-01-03 12:40:00,20.5,5.3,30.07,NW,317,11.0,16.0,51,0.00,,---,0.00,VWS V14.01,2013-01-03 17:40:00,
2013-01-03 12:45:00,20.5,3.9,30.06,NW,313,13.0,16.0,48,0.00,,---,0.00,VWS V14.01,2013-01-03 17:45:00,
2013-01-03 12:50:00,20.7,4.6,30.05,NW,313,12.0,16.0,49,0.00,,---,0.00,VWS V14.01,2013-01-03 17:50:00,
2013-01-03 12:55:00,21.0,5.3,30.06,WNW,299,10.0,16.0,50,0.00,,---,0.00,VWS V14.01,2013-01-03 17:55:00,
2013-01-03 13:01:00,21.5,7.0,30.06,NW,323,9.0,10.0,53,0.00,,---,0.00,VWS V14.01,2013-01-03 18:01:00,
2013-01-03 13:06:00,21.8,5.1,30.06,WNW,294,12.0,12.0,48,0.00,,---,0.00,VWS V14.01,2013-01-03 18:06:00,
2013-01-03 13:11:00,22.2,5.5,30.05,WNW,297,10.0,13.0,48,0.00,,---,0.00,VWS V14.01,2013-01-03 18:11:00,
2013-01-03 13:16:00,21.9,2.8,30.05,NW,325,11.0,15.0,43,0.00,,---,0.00,VWS V14.01,2013-01-03 18:16:00,
2013-01-03 13:21:00,22.1,3.5,30.04,NW,321,10.0,15.0,44,0.00,,---,0.00,VWS V14.01,2013-01-03 18:21:00,
2013-01-03 13:26:00,22.0,3.4,30.04,NW,324,11.0,15.0,44,0.00,,---,0.00,VWS V14.01,2013-01-03 18:26:00,
2013-01-03 13:31:00,22.8,5.6,30.04,NW,323,10.0,12.0,47,0.00,,---,0.00,VWS V14.01,2013-01-03 18:31:00,
2013-01-03 13:36:00,22.9,3.8,30.04,WNW,302,11.0,13.0,43,0.00,,---,0.00,VWS V14.01,2013-01-03 18:36:00,
2013-01-03 13:41:00,23.3,3.6,30.04,NW,305,14.0,16.0,42,0.00,,---,0.00,VWS V14.01,2013-01-03 18:41:00,
2013-01-03 13:46:00,23.5,4.3,30.03,NW,304,12.0,16.0,43,0.00,,---,0.00,VWS V14.01,2013-01-03 18:46:00,
2013-01-03 13:51:00,23.6,2.8,30.03,NW,306,11.0,16.0,40,0.00,,---,0.00,VWS V14.01,2013-01-03 18:51:00,
2013-01-03 13:57:00,24.2,4.9,30.03,WNW,284,12.0,16.0,43,0.00,,---,0.00,VWS V14.01,2013-01-03 18:57:00,
2013-01-03 14:02:00,24.3,4.0,30.03,NW,311,12.0,12.0,41,0.00,,---,0.00,VWS V14.01,2013-01-03 19:02:00,
2013-01-03 14:07:00,24.7,4.9,30.03,WNW,296,10.0,13.0,42,0.00,,---,0.00,VWS V14.01,2013-01-03 19:07:00,
2013-01-03 14:12:00,24.8,5.5,30.03,WNW,298,8.0,13.0,43,0.00,,---,0.00,VWS V14.01,2013-01-03 19:12:00,
2013-01-03 14:17:00,25.0,5.7,30.03,WNW,298,11.0,13.0,43,0.00,,---,0.00,VWS V14.01,2013-01-03 19:17:00,
2013-01-03 14:55:00,26.3,5.8,30.04,WNW,288,9.0,15.0,41,0.00,,---,0.00,VWS V14.01,2013-01-03 19:55:00,
2013-01-03 15:00:00,26.3,5.8,30.03,WNW,286,10.0,10.0,41,0.00,,---,0.00,VWS V14.01,2013-01-03 20:00:00,
2013-01-03 15:05:00,26.3,4.7,30.03,NW,308,9.0,13.0,39,0.00,,---,0.00,VWS V14.01,2013-01-03 20:05:00,
2013-01-03 15:10:00,26.3,6.3,30.03,WNW,293,9.0,14.0,42,0.00,,---,0.00,VWS V14.01,2013-01-03 20:10:00,
2013-01-03 15:16:00,26.2,3.5,30.03,WNW,292,11.0,17.0,37,0.00,,---,0.00,VWS V14.01,2013-01-03 20:16:00,
2013-01-03 15:21:00,26.3,4.7,30.03,WNW,289,9.0,17.0,39,0.00,,---,0.00,VWS V14.01,2013-01-03 20:21:00,
2013-01-03 15:26:00,26.3,4.2,30.03,NW,306,8.0,17.0,38,0.00,,---,0.00,VWS V14.01,2013-01-03 20:26:00,
2013-01-03 15:31:00,26.5,6.5,30.03,WNW,289,8.0,10.0,42,0.00,,---,0.00,VWS V14.01,2013-01-03 20:31:00,
2013-01-03 15:36:00,26.6,5.6,30.03,NW,318,10.0,11.0,40,0.00,,---,0.00,VWS V14.01,2013-01-03 20:36:00,
2013-01-03 15:41:00,26.7,3.3,30.03,NW,313,10.0,16.0,36,0.00,,---,0.00,VWS V14.01,2013-01-03 20:41:00,
2013-01-03 15:46:00,26.6,0.1,30.03,WNW,303,12.0,16.0,31,0.00,,---,0.00,VWS V14.01,2013-01-03 20:46:00,
2013-01-03 15:51:00,26.6,2.0,30.03,NW,318,12.0,16.0,34,0.00,,---,0.00,VWS V14.01,2013-01-03 20:51:00,
2013-01-03 15:56:00,26.4,2.5,30.03,NW,323,11.0,16.0,35,0.00,,---,0.00,VWS V14.01,2013-01-03 20:56:00,
2013-01-03 16:02:00,26.3,2.4,30.03,NW,315,13.0,13.0,35,0.00,,---,0.00,VWS V14.01,2013-01-03 21:02:00,
2013-01-03 16:07:00,26.2,2.3,30.03,NW,313,11.0,14.0,35,0.00,,---,0.00,VWS V14.01,2013-01-03 21:07:00,
2013-01-03 16:12:00,26.2,2.3,30.04,NW,319,10.0,15.0,35,0.00,,---,0.00,VWS V14.01,2013-01-03 21:12:00,
2013-01-03 16:17:00,26.0,4.4,30.04,NW,309,10.0,15.0,39,0.00,,---,0.00,VWS V14.01,2013-01-03 21:17:00,
2013-01-03 16:22:00,25.8,5.4,30.04,NW,304,11.0,15.0,41,0.00,,---,0.00,VWS V14.01,2013-01-03 21:22:00,
2013-01-03 16:27:00,25.6,2.4,30.04,NW,311,10.0,15.0,36,0.00,,---,0.00,VWS V14.01,2013-01-03 21:27:00,
2013-01-03 16:32:00,25.4,3.9,30.04,NW,314,11.0,12.0,39,0.00,,---,0.00,VWS V14.01,2013-01-03 21:32:00,
2013-01-03 16:37:00,25.6,4.6,30.04,NW,307,8.0,12.0,40,0.00,,---,0.00,VWS V14.01,2013-01-03 21:37:00,
2013-01-03 16:42:00,25.4,4.5,30.04,NW,310,8.0,12.0,40,0.00,,---,0.00,VWS V14.01,2013-01-03 21:42:00,
2013-01-03 16:47:00,25.2,2.6,30.03,NW,315,7.0,12.0,37,0.00,,---,0.00,VWS V14.01,2013-01-03 21:47:00,
2013-01-03 16:53:00,25.2,4.3,30.03,NW,311,6.0,12.0,40,0.00,,---,0.00,VWS V14.01,2013-01-03 21:53:00,
2013-01-03 16:58:00,25.2,3.7,30.03,WNW,294,5.0,12.0,39,0.00,,---,0.00,VWS V14.01,2013-01-03 21:58:00,
2013-01-03 17:03:00,25.2,4.8,30.03,West,275,9.0,9.0,41,0.00,,---,0.00,VWS V14.01,2013-01-03 22:03:00,
2013-01-03 17:08:00,25.2,3.2,30.03,West,277,9.0,11.0,38,0.00,,---,0.00,VWS V14.01,2013-01-03 22:08:00,
2013-01-03 17:13:00,25.2,3.7,30.04,West,271,6.0,12.0,39,0.00,,---,0.00,VWS V14.01,2013-01-03 22:13:00,
2013-01-03 17:18:00,25.3,4.9,30.04,WNW,287,8.0,12.0,41,0.00,,---,0.00,VWS V14.01,2013-01-03 22:18:00,
2013-01-03 17:23:00,25.1,2.5,30.04,WNW,284,8.0,12.0,37,0.00,,---,0.00,VWS V14.01,2013-01-03 22:23:00,
2013-01-03 17:28:00,25.4,6.5,30.04,West,278,10.0,13.0,44,0.00,,---,0.00,VWS V14.01,2013-01-03 22:28:00,
2013-01-03 17:33:00,25.4,3.9,30.04,West,277,8.0,12.0,39,0.00,,---,0.00,VWS V14.01,2013-01-03 22:33:00,
2013-01-03 17:39:00,25.3,4.4,30.04,WNW,286,8.0,12.0,40,0.00,,---,0.00,VWS V14.01,2013-01-03 22:39:00,
2013-01-03 17:44:00,25.2,5.3,30.04,West,275,6.0,12.0,42,0.00,,---,0.00,VWS V14.01,2013-01-03 22:44:00,
2013-01-03 17:49:00,25.2,4.8,30.04,West,275,7.0,12.0,41,0.00,,---,0.00,VWS V14.01,2013-01-03 22:49:00,
2013-01-03 17:54:00,25.1,6.3,30.04,West,276,10.0,12.0,44,0.00,,---,0.00,VWS V14.01,2013-01-03 22:54:00,
2013-01-03 17:59:00,25.2,6.4,30.04,West,271,10.0,12.0,44,0.00,,---,0.00,VWS V14.01,2013-01-03 22:59:00,
2013-01-03 18:04:00,25.1,6.8,30.04,WNW,292,9.0,11.0,45,0.00,,---,0.00,VWS V14.01,2013-01-03 23:04:00,
2013-01-03 18:09:00,25.1,6.8,30.04,West,273,9.0,12.0,45,0.00,,---,0.00,VWS V14.01,2013-01-03 23:09:00,
2013-01-03 18:14:00,25.1,8.2,30.04,WNW,289,9.0,13.0,48,0.00,,---,0.00,VWS V14.01,2013-01-03 23:14:00,
2013-01-03 18:19:00,25.0,7.6,30.04,WNW,294,8.0,13.0,47,0.00,,---,0.00,VWS V14.01,2013-01-03 23:19:00,
2013-01-03 18:24:00,25.0,8.1,30.05,WNW,284,9.0,13.0,48,0.00,,---,0.00,VWS V14.01,2013-01-03 23:24:00,
2013-01-03 18:29:00,24.9,8.9,30.05,WNW,296,10.0,13.0,50,0.00,,---,0.00,VWS V14.01,2013-01-03 23:29:00,
2013-01-03 18:35:00,24.8,8.4,30.05,West,281,8.0,11.0,49,0.00,,---,0.00,VWS V14.01,2013-01-03 23:35:00,
2013-01-03 18:40:00,24.7,8.7,30.05,WNW,296,8.0,12.0,50,0.00,,---,0.00,VWS V14.01,2013-01-03 23:40:00,
2013-01-03 18:45:00,24.7,8.7,30.05,West,279,9.0,12.0,50,0.00,,---,0.00,VWS V14.01,2013-01-03 23:45:00,
2013-01-03 18:50:00,24.8,10.1,30.05,West,277,8.0,12.0,53,0.00,,---,0.00,VWS V14.01,2013-01-03 23:50:00,
2013-01-03 18:55:00,24.8,10.1,30.05,West,275,8.0,12.0,53,0.00,,---,0.00,VWS V14.01,2013-01-03 23:55:00,
2013-01-03 19:00:00,24.8,8.4,30.05,West,275,8.0,12.0,49,0.00,,---,0.00,VWS V14.01,2013-01-04 00:00:00,
2013-01-03 19:05:00,24.8,9.2,30.05,WNW,285,7.0,9.0,51,0.00,,---,0.00,VWS V14.01,2013-01-04 00:05:00,
2013-01-03 19:10:00,24.9,8.5,30.05,WNW,294,7.0,9.0,49,0.00,,---,0.00,VWS V14.01,2013-01-04 00:10:00,
2013-01-03 19:15:00,24.9,10.2,30.05,WNW,286,6.0,10.0,53,0.00,,---,0.00,VWS V14.01,2013-01-04 00:15:00,
2013-01-03 19:20:00,25.0,9.9,30.05,WNW,296,6.0,10.0,52,0.00,,---,0.00,VWS V14.01,2013-01-04 00:20:00,
2013-01-03 19:26:00,24.8,8.4,30.06,WNW,289,6.0,10.0,49,0.00,,---,0.00,VWS V14.01,2013-01-04 00:26:00,
2013-01-03 19:31:00,24.7,8.3,30.06,WNW,294,5.0,6.0,49,0.00,,---,0.00,VWS V14.01,2013-01-04 00:31:00,
2013-01-03 19:36:00,24.7,9.2,30.05,WNW,292,3.0,6.0,51,0.00,,---,0.00,VWS V14.01,2013-01-04 00:36:00,
2013-01-03 19:41:00,24.8,10.1,30.06,WNW,292,5.0,7.0,53,0.00,,---,0.00,VWS V14.01,2013-01-04 00:41:00,
2013-01-03 19:46:00,24.7,9.6,30.05,WNW,284,4.0,7.0,52,0.00,,---,0.00,VWS V14.01,2013-01-04 00:46:00,
2013-01-03 19:51:00,24.8,10.1,30.05,WNW,283,5.0,7.0,53,0.00,,---,0.00,VWS V14.01,2013-01-04 00:51:00,
2013-01-03 19:56:00,24.8,9.2,30.05,WNW,284,3.0,7.0,51,0.00,,---,0.00,VWS V14.01,2013-01-04 00:56:00,
2013-01-03 20:01:00,24.9,8.9,30.05,West,277,8.0,8.0,50,0.00,,---,0.00,VWS V14.01,2013-01-04 01:01:00,
2013-01-03 20:06:00,24.9,10.6,30.05,West,275,4.0,8.0,54,0.00,,---,0.00,VWS V14.01,2013-01-04 01:06:00,
2013-01-03 20:11:00,24.9,9.8,30.05,West,272,2.0,8.0,52,0.00,,---,0.00,VWS V14.01,2013-01-04 01:11:00,
2013-01-03 20:17:00,25.0,9.9,30.05,West,275,7.0,8.0,52,0.00,,---,0.00,VWS V14.01,2013-01-04 01:17:00,
2013-01-03 20:22:00,25.1,10.4,30.05,West,265,3.0,9.0,53,0.00,,---,0.00,VWS V14.01,2013-01-04 01:22:00,
2013-01-03 20:27:00,25.3,11.0,30.05,WNW,282,8.0,10.0,54,0.00,,---,0.00,VWS V14.01,2013-01-04 01:27:00,
2013-01-03 20:32:00,25.2,10.9,30.05,West,274,10.0,10.0,54,0.00,,---,0.00,VWS V14.01,2013-01-04 01:32:00,
2013-01-03 20:37:00,25.3,11.0,30.05,West,273,9.0,10.0,54,0.00,,---,0.00,VWS V14.01,2013-01-04 01:37:00,
2013-01-03 20:42:00,25.2,11.7,30.05,West,271,7.0,10.0,56,0.00,,---,0.00,VWS V14.01,2013-01-04 01:42:00,
2013-01-03 20:47:00,25.1,11.6,30.05,West,259,7.0,10.0,56,0.00,,---,0.00,VWS V14.01,2013-01-04 01:47:00,
2013-01-03 20:52:00,25.1,12.0,30.05,West,269,8.0,11.0,57,0.00,,---,0.00,VWS V14.01,2013-01-04 01:52:00,
2013-01-03 20:57:00,24.9,11.4,30.05,WNW,289,9.0,11.0,56,0.00,,---,0.00,VWS V14.01,2013-01-04 01:57:00,
2013-01-03 21:02:00,24.9,12.6,30.06,West,267,12.0,14.0,59,0.00,,---,0.00,VWS V14.01,2013-01-04 02:02:00,
2013-01-03 21:07:00,25.0,13.5,30.05,West,277,14.0,14.0,61,0.00,,---,0.00,VWS V14.01,2013-01-04 02:07:00,
2013-01-03 21:12:00,24.7,12.8,30.05,WNW,286,10.0,15.0,60,0.00,,---,0.00,VWS V14.01,2013-01-04 02:12:00,
2013-01-03 21:17:00,24.7,13.6,30.05,West,279,8.0,15.0,62,0.00,,---,0.00,VWS V14.01,2013-01-04 02:17:00,
2013-01-03 21:23:00,24.6,13.4,30.05,WNW,288,8.0,15.0,62,0.00,,---,0.00,VWS V14.01,2013-01-04 02:23:00,
2013-01-03 21:28:00,24.5,13.0,30.05,WNW,286,7.0,15.0,61,0.00,,---,0.00,VWS V14.01,2013-01-04 02:28:00,
2013-01-03 21:33:00,24.6,13.4,30.05,West,271,7.0,12.0,62,0.00,,---,0.00,VWS V14.01,2013-01-04 02:33:00,
2013-01-03 21:38:00,24.6,13.1,30.05,West,268,8.0,12.0,61,0.00,,---,0.00,VWS V14.01,2013-01-04 02:38:00,
2013-01-03 21:43:00,24.9,14.1,30.05,West,269,8.0,12.0,63,0.00,,---,0.00,VWS V14.01,2013-01-04 02:43:00,
2013-01-03 21:48:00,24.9,13.7,30.05,West,274,9.0,14.0,62,0.00,,---,0.00,VWS V14.01,2013-01-04 02:48:00,
2013-01-03 21:53:00,25.0,14.6,30.04,West,266,11.0,14.0,64,0.00,,---,0.00,VWS V14.01,2013-01-04 02:53:00,
2013-01-03 21:58:00,25.1,15.0,30.04,West,266,11.0,14.0,65,0.00,,---,0.00,VWS V14.01,2013-01-04 02:58:00,
2013-01-03 22:03:00,25.1,14.3,30.04,West,273,9.0,12.0,63,0.00,,---,0.00,VWS V14.01,2013-01-04 03:03:00,
2013-01-03 22:08:00,25.2,14.8,30.04,West,275,9.0,12.0,64,0.00,,---,0.00,VWS V14.01,2013-01-04 03:08:00,
2013-01-03 22:13:00,25.3,14.8,30.04,West,267,10.0,12.0,64,0.00,,---,0.00,VWS V14.01,2013-01-04 03:13:00,
2013-01-03 22:19:00,25.3,14.1,30.04,West,269,10.0,12.0,62,0.00,,---,0.00,VWS V14.01,2013-01-04 03:19:00,
2013-01-03 22:24:00,25.2,14.0,30.03,West,266,12.0,12.0,62,0.00,,---,0.00,VWS V14.01,2013-01-04 03:24:00,
2013-01-03 22:29:00,25.5,15.0,30.03,West,267,9.0,12.0,64,0.00,,---,0.00,VWS V14.01,2013-01-04 03:29:00,
2013-01-03 22:34:00,25.7,15.2,30.03,WSW,251,6.0,11.0,64,0.00,,---,0.00,VWS V14.01,2013-01-04 03:34:00,
2013-01-03 22:39:00,25.7,15.9,30.03,WSW,249,5.0,11.0,66,0.00,,---,0.00,VWS V14.01,2013-01-04 03:39:00,
2013-01-03 22:44:00,25.6,15.5,30.03,WSW,246,6.0,11.0,65,0.00,,---,0.00,VWS V14.01,2013-01-04 03:44:00,
2013-01-03 22:49:00,25.6,15.1,30.03,WSW,240,8.0,11.0,64,0.00,,---,0.00,VWS V14.01,2013-01-04 03:49:00,
2013-01-03 22:54:00,25.6,14.4,30.03,WSW,248,5.0,11.0,62,0.00,,---,0.00,VWS V14.01,2013-01-04 03:54:00,
2013-01-03 23:00:00,25.7,14.9,30.02,WSW,246,6.0,11.0,63,0.00,,---,0.00,VWS V14.01,2013-01-04 04:00:00,
2013-01-03 23:05:00,25.9,15.4,30.02,WSW,245,5.0,8.0,64,0.00,,---,0.00,VWS V14.01,2013-01-04 04:05:00,
2013-01-03 23:10:00,26.2,16.1,30.01,SW,220,5.0,9.0,65,0.00,,---,0.00,VWS V14.01,2013-01-04 04:10:00,
2013-01-03 23:15:00,26.1,16.0,30.01,SW,228,5.0,9.0,65,0.00,,---,0.00,VWS V14.01,2013-01-04 04:15:00,
2013-01-03 23:20:00,26.2,16.1,30.01,SW,233,7.0,9.0,65,0.00,,---,0.00,VWS V14.01,2013-01-04 04:20:00,
2013-01-03 23:25:00,26.1,16.7,30.01,SW,218,6.0,9.0,67,0.00,,---,0.00,VWS V14.01,2013-01-04 04:25:00,
2013-01-03 23:30:00,26.2,16.4,30.01,SW,232,8.0,8.0,66,0.00,,---,0.00,VWS V14.01,2013-01-04 04:30:00,
2013-01-03 23:35:00,26.4,16.9,30.00,WSW,244,10.0,11.0,67,0.00,,---,0.00,VWS V14.01,2013-01-04 04:35:00,
2013-01-03 23:40:00,26.5,16.3,30.00,WSW,244,10.0,15.0,65,0.00,,---,0.00,VWS V14.01,2013-01-04 04:40:00,
2013-01-03 23:45:00,26.7,16.9,29.99,SW,235,9.0,15.0,66,0.00,,---,0.00,VWS V14.01,2013-01-04 04:45:00,
2013-01-03 23:50:00,26.7,17.9,29.99,WSW,246,11.0,15.0,69,0.00,,---,0.00,VWS V14.01,2013-01-04 04:50:00,
2013-01-03 23:55:00,26.6,16.8,29.99,WSW,238,9.0,15.0,66,0.00,,---,0.00,VWS V14.01,2013-01-04 04:55:00,